sensor_id;sensor_type;location;lat;lon;timestamp;temperature;humidity
74940;HTU21D;63505;45.226;37.908;2023-02-03T00:02:19;-0.97;85.22
74940;HTU21D;63505;45.226;37.908;2023-02-03T00:04:44;-0.96;85.25
74940;HTU21D;63505;45.226;37.908;2023-02-03T00:07:11;-0.95;85.21
74940;HTU21D;63505;45.226;37.908;2023-02-03T00:09:38;-0.96;85.18
74940;HTU21D;63505;45.226;37.908;2023-02-03T00:12:04;-0.95;85.16
74940;HTU21D;63505;45.226;37.908;2023-02-03T00:14:30;-0.93;85.13
74940;HTU21D;63505;45.226;37.908;2023-02-03T00:16:58;-0.95;85.00
74940;HTU21D;63505;45.226;37.908;2023-02-03T00:19:24;-1.00;85.00
74940;HTU21D;63505;45.226;37.908;2023-02-03T00:21:50;-1.02;85.03
74940;HTU21D;63505;45.226;37.908;2023-02-03T00:24:16;-1.02;85.10
74940;HTU21D;63505;45.226;37.908;2023-02-03T00:26:45;-0.99;85.14
74940;HTU21D;63505;45.226;37.908;2023-02-03T00:29:12;-0.95;85.13
74940;HTU21D;63505;45.226;37.908;2023-02-03T00:31:39;-0.95;85.01
74940;HTU21D;63505;45.226;37.908;2023-02-03T00:34:06;-1.03;84.93
74940;HTU21D;63505;45.226;37.908;2023-02-03T00:36:32;-1.13;85.00
74940;HTU21D;63505;45.226;37.908;2023-02-03T00:38:59;-1.23;85.04
74940;HTU21D;63505;45.226;37.908;2023-02-03T00:41:28;-1.28;85.13
74940;HTU21D;63505;45.226;37.908;2023-02-03T00:43:54;-1.30;85.26
74940;HTU21D;63505;45.226;37.908;2023-02-03T00:46:20;-1.32;85.27
74940;HTU21D;63505;45.226;37.908;2023-02-03T00:48:46;-1.32;85.28
74940;HTU21D;63505;45.226;37.908;2023-02-03T00:51:12;-1.32;85.30
74940;HTU21D;63505;45.226;37.908;2023-02-03T00:53:38;-1.31;85.29
74940;HTU21D;63505;45.226;37.908;2023-02-03T00:56:05;-1.29;85.23
74940;HTU21D;63505;45.226;37.908;2023-02-03T00:58:40;-1.31;85.16
74940;HTU21D;63505;45.226;37.908;2023-02-03T01:01:07;-1.32;85.13
74940;HTU21D;63505;45.226;37.908;2023-02-03T01:03:33;-1.33;85.11
74940;HTU21D;63505;45.226;37.908;2023-02-03T01:06:28;-1.40;85.06
74940;HTU21D;63505;45.226;37.908;2023-02-03T01:08:54;-1.46;85.09
74940;HTU21D;63505;45.226;37.908;2023-02-03T01:11:22;-1.52;85.14
74940;HTU21D;63505;45.226;37.908;2023-02-03T01:13:49;-1.53;85.29
74940;HTU21D;63505;45.226;37.908;2023-02-03T01:16:18;-1.48;85.29
74940;HTU21D;63505;45.226;37.908;2023-02-03T01:18:45;-1.47;85.29
74940;HTU21D;63505;45.226;37.908;2023-02-03T01:21:15;-1.47;85.22
74940;HTU21D;63505;45.226;37.908;2023-02-03T01:23:42;-1.49;85.19
74940;HTU21D;63505;45.226;37.908;2023-02-03T01:26:11;-1.54;85.17
74940;HTU21D;63505;45.226;37.908;2023-02-03T01:28:38;-1.58;85.14
74940;HTU21D;63505;45.226;37.908;2023-02-03T01:31:15;-1.60;85.26
74940;HTU21D;63505;45.226;37.908;2023-02-03T01:33:41;-1.60;85.21
74940;HTU21D;63505;45.226;37.908;2023-02-03T01:36:11;-1.60;85.24
74940;HTU21D;63505;45.226;37.908;2023-02-03T01:38:38;-1.60;85.11
74940;HTU21D;63505;45.226;37.908;2023-02-03T01:41:06;-1.68;84.99
74940;HTU21D;63505;45.226;37.908;2023-02-03T01:43:36;-1.80;85.09
74940;HTU21D;63505;45.226;37.908;2023-02-03T01:46:17;-1.82;85.26
74940;HTU21D;63505;45.226;37.908;2023-02-03T01:48:45;-1.82;85.29
74940;HTU21D;63505;45.226;37.908;2023-02-03T01:51:11;-1.79;85.33
74940;HTU21D;63505;45.226;37.908;2023-02-03T01:53:37;-1.78;85.26
74940;HTU21D;63505;45.226;37.908;2023-02-03T01:56:05;-1.85;85.21
74940;HTU21D;63505;45.226;37.908;2023-02-03T01:58:36;-1.88;85.27
74940;HTU21D;63505;45.226;37.908;2023-02-03T02:01:03;-1.89;85.26
74940;HTU21D;63505;45.226;37.908;2023-02-03T02:03:40;-1.94;85.21
74940;HTU21D;63505;45.226;37.908;2023-02-03T02:06:12;-2.01;85.29
74940;HTU21D;63505;45.226;37.908;2023-02-03T02:08:41;-2.01;85.38
74940;HTU21D;63505;45.226;37.908;2023-02-03T02:11:08;-1.99;85.38
74940;HTU21D;63505;45.226;37.908;2023-02-03T02:13:35;-2.00;85.32
74940;HTU21D;63505;45.226;37.908;2023-02-03T02:16:29;-1.99;85.38
74940;HTU21D;63505;45.226;37.908;2023-02-03T02:21:59;-1.95;85.32
74940;HTU21D;63505;45.226;37.908;2023-02-03T02:36:32;-1.78;85.17
74940;HTU21D;63505;45.226;37.908;2023-02-03T02:39:07;-1.79;85.09
74940;HTU21D;63505;45.226;37.908;2023-02-03T02:42:14;-1.83;85.08
74940;HTU21D;63505;45.226;37.908;2023-02-03T02:44:50;-1.83;85.13
74940;HTU21D;63505;45.226;37.908;2023-02-03T02:47:20;-1.83;85.13
74940;HTU21D;63505;45.226;37.908;2023-02-03T02:52:29;-1.78;85.26
74940;HTU21D;63505;45.226;37.908;2023-02-03T02:55:00;-1.71;85.26
74940;HTU21D;63505;45.226;37.908;2023-02-03T02:57:29;-1.64;85.23
74940;HTU21D;63505;45.226;37.908;2023-02-03T02:59:56;-1.64;85.19
74940;HTU21D;63505;45.226;37.908;2023-02-03T03:02:31;-1.61;85.20
74940;HTU21D;63505;45.226;37.908;2023-02-03T03:05:02;-1.53;85.19
74940;HTU21D;63505;45.226;37.908;2023-02-03T03:07:34;-1.53;85.01
74940;HTU21D;63505;45.226;37.908;2023-02-03T03:10:07;-1.58;84.97
74940;HTU21D;63505;45.226;37.908;2023-02-03T03:12:37;-1.61;85.07
74940;HTU21D;63505;45.226;37.908;2023-02-03T03:15:09;-1.63;85.09
74940;HTU21D;63505;45.226;37.908;2023-02-03T03:17:51;-1.60;85.10
74940;HTU21D;63505;45.226;37.908;2023-02-03T03:20:21;-1.61;85.06
74940;HTU21D;63505;45.226;37.908;2023-02-03T03:22:58;-1.67;85.07
74940;HTU21D;63505;45.226;37.908;2023-02-03T03:25:30;-1.68;85.13
74940;HTU21D;63505;45.226;37.908;2023-02-03T03:28:03;-1.70;85.20
74940;HTU21D;63505;45.226;37.908;2023-02-03T03:30:35;-1.69;85.22
74940;HTU21D;63505;45.226;37.908;2023-02-03T03:33:03;-1.67;85.32
74940;HTU21D;63505;45.226;37.908;2023-02-03T03:35:44;-1.64;85.32
74940;HTU21D;63505;45.226;37.908;2023-02-03T03:38:18;-1.65;85.23
74940;HTU21D;63505;45.226;37.908;2023-02-03T03:40:52;-1.69;85.19
74940;HTU21D;63505;45.226;37.908;2023-02-03T03:43:24;-1.79;85.20
74940;HTU21D;63505;45.226;37.908;2023-02-03T03:46:13;-1.80;85.32
74940;HTU21D;63505;45.226;37.908;2023-02-03T03:48:41;-1.83;85.26
74940;HTU21D;63505;45.226;37.908;2023-02-03T03:51:26;-1.85;85.34
74940;HTU21D;63505;45.226;37.908;2023-02-03T03:53:55;-1.84;85.41
74940;HTU21D;63505;45.226;37.908;2023-02-03T03:56:26;-1.72;85.72
74940;HTU21D;63505;45.226;37.908;2023-02-03T03:58:53;-1.57;85.42
74940;HTU21D;63505;45.226;37.908;2023-02-03T04:01:20;-1.53;85.35
74940;HTU21D;63505;45.226;37.908;2023-02-03T04:03:51;-1.52;85.24
74940;HTU21D;63505;45.226;37.908;2023-02-03T04:06:19;-1.58;85.15
74940;HTU21D;63505;45.226;37.908;2023-02-03T04:08:45;-1.62;85.28
74940;HTU21D;63505;45.226;37.908;2023-02-03T04:11:11;-1.62;85.38
74940;HTU21D;63505;45.226;37.908;2023-02-03T04:13:57;-1.61;85.38
74940;HTU21D;63505;45.226;37.908;2023-02-03T04:16:22;-1.65;85.38
74940;HTU21D;63505;45.226;37.908;2023-02-03T04:18:48;-1.65;85.55
74940;HTU21D;63505;45.226;37.908;2023-02-03T04:21:14;-1.45;86.27
74940;HTU21D;63505;45.226;37.908;2023-02-03T04:23:40;-1.13;85.57
74940;HTU21D;63505;45.226;37.908;2023-02-03T04:26:06;-1.10;85.42
74940;HTU21D;63505;45.226;37.908;2023-02-03T04:28:32;-1.18;85.35
74940;HTU21D;63505;45.226;37.908;2023-02-03T04:31:00;-1.26;85.38
74940;HTU21D;63505;45.226;37.908;2023-02-03T04:33:26;-1.39;85.32
74940;HTU21D;63505;45.226;37.908;2023-02-03T04:35:52;-1.53;85.33
74940;HTU21D;63505;45.226;37.908;2023-02-03T04:38:18;-1.70;85.41
74940;HTU21D;63505;45.226;37.908;2023-02-03T04:40:45;-1.80;85.59
74940;HTU21D;63505;45.226;37.908;2023-02-03T04:43:10;-1.88;85.70
74940;HTU21D;63505;45.226;37.908;2023-02-03T04:45:37;-1.93;85.82
74940;HTU21D;63505;45.226;37.908;2023-02-03T04:48:03;-1.93;85.91
74940;HTU21D;63505;45.226;37.908;2023-02-03T04:50:30;-1.91;85.99
74940;HTU21D;63505;45.226;37.908;2023-02-03T04:52:56;-1.85;86.04
74940;HTU21D;63505;45.226;37.908;2023-02-03T04:55:25;-1.78;85.99
74940;HTU21D;63505;45.226;37.908;2023-02-03T04:57:55;-1.74;85.93
74940;HTU21D;63505;45.226;37.908;2023-02-03T05:00:21;-1.67;85.89
74940;HTU21D;63505;45.226;37.908;2023-02-03T05:02:47;-1.63;85.77
74940;HTU21D;63505;45.226;37.908;2023-02-03T05:05:13;-1.60;85.78
74940;HTU21D;63505;45.226;37.908;2023-02-03T05:07:39;-1.53;85.74
74940;HTU21D;63505;45.226;37.908;2023-02-03T05:10:05;-1.46;85.67
74940;HTU21D;63505;45.226;37.908;2023-02-03T05:12:31;-1.42;85.56
74940;HTU21D;63505;45.226;37.908;2023-02-03T05:14:57;-1.45;85.49
74940;HTU21D;63505;45.226;37.908;2023-02-03T05:17:23;-1.46;85.55
74940;HTU21D;63505;45.226;37.908;2023-02-03T05:19:49;-1.46;85.58
74940;HTU21D;63505;45.226;37.908;2023-02-03T05:22:15;-1.42;85.64
74940;HTU21D;63505;45.226;37.908;2023-02-03T05:24:41;-1.41;85.66
74940;HTU21D;63505;45.226;37.908;2023-02-03T05:27:07;-1.38;85.68
74940;HTU21D;63505;45.226;37.908;2023-02-03T05:29:33;-1.35;85.67
74940;HTU21D;63505;45.226;37.908;2023-02-03T05:31:59;-1.34;85.76
74940;HTU21D;63505;45.226;37.908;2023-02-03T05:34:24;-1.33;85.87
74940;HTU21D;63505;45.226;37.908;2023-02-03T05:36:50;-1.32;86.01
74940;HTU21D;63505;45.226;37.908;2023-02-03T05:39:16;-1.30;86.31
74940;HTU21D;63505;45.226;37.908;2023-02-03T05:41:42;-1.29;86.60
74940;HTU21D;63505;45.226;37.908;2023-02-03T05:44:22;-1.31;86.92
74940;HTU21D;63505;45.226;37.908;2023-02-03T05:46:49;-1.38;87.40
74940;HTU21D;63505;45.226;37.908;2023-02-03T05:49:15;-1.39;87.83
74940;HTU21D;63505;45.226;37.908;2023-02-03T05:51:41;-1.40;88.12
74940;HTU21D;63505;45.226;37.908;2023-02-03T05:54:08;-1.36;88.39
74940;HTU21D;63505;45.226;37.908;2023-02-03T05:56:34;-1.34;88.70
74940;HTU21D;63505;45.226;37.908;2023-02-03T05:59:00;-1.26;88.91
74940;HTU21D;63505;45.226;37.908;2023-02-03T06:01:26;-1.17;89.06
74940;HTU21D;63505;45.226;37.908;2023-02-03T06:03:51;-1.05;89.25
74940;HTU21D;63505;45.226;37.908;2023-02-03T06:06:18;-0.93;89.37
74940;HTU21D;63505;45.226;37.908;2023-02-03T06:08:43;-0.85;89.45
74940;HTU21D;63505;45.226;37.908;2023-02-03T06:11:10;-0.76;89.48
74940;HTU21D;63505;45.226;37.908;2023-02-03T06:13:36;-0.72;89.52
74940;HTU21D;63505;45.226;37.908;2023-02-03T06:16:02;-0.68;89.55
74940;HTU21D;63505;45.226;37.908;2023-02-03T06:18:29;-0.62;89.63
74940;HTU21D;63505;45.226;37.908;2023-02-03T06:20:55;-0.54;89.71
74940;HTU21D;63505;45.226;37.908;2023-02-03T06:23:20;-0.46;89.79
74940;HTU21D;63505;45.226;37.908;2023-02-03T06:25:47;-0.38;89.83
74940;HTU21D;63505;45.226;37.908;2023-02-03T06:28:14;-0.34;89.78
74940;HTU21D;63505;45.226;37.908;2023-02-03T06:30:40;-0.37;89.83
74940;HTU21D;63505;45.226;37.908;2023-02-03T06:33:06;-0.34;90.00
74940;HTU21D;63505;45.226;37.908;2023-02-03T06:35:32;-0.28;90.11
74940;HTU21D;63505;45.226;37.908;2023-02-03T06:37:57;-0.20;90.20
74940;HTU21D;63505;45.226;37.908;2023-02-03T06:40:23;-0.11;90.26
74940;HTU21D;63505;45.226;37.908;2023-02-03T06:42:49;0.01;90.33
74940;HTU21D;63505;45.226;37.908;2023-02-03T06:45:16;0.12;90.34
74940;HTU21D;63505;45.226;37.908;2023-02-03T06:47:43;0.22;90.38
74940;HTU21D;63505;45.226;37.908;2023-02-03T06:50:12;0.30;90.44
74940;HTU21D;63505;45.226;37.908;2023-02-03T06:52:38;0.35;90.52
74940;HTU21D;63505;45.226;37.908;2023-02-03T06:55:04;0.35;90.60
74940;HTU21D;63505;45.226;37.908;2023-02-03T06:57:31;0.33;90.72
74940;HTU21D;63505;45.226;37.908;2023-02-03T06:59:57;0.31;90.89
74940;HTU21D;63505;45.226;37.908;2023-02-03T07:02:23;0.32;91.11
74940;HTU21D;63505;45.226;37.908;2023-02-03T07:04:49;0.33;91.26
74940;HTU21D;63505;45.226;37.908;2023-02-03T07:07:15;0.35;91.40
74940;HTU21D;63505;45.226;37.908;2023-02-03T07:09:41;0.39;91.53
74940;HTU21D;63505;45.226;37.908;2023-02-03T07:12:08;0.44;91.66
74940;HTU21D;63505;45.226;37.908;2023-02-03T07:14:34;0.50;91.72
74940;HTU21D;63505;45.226;37.908;2023-02-03T07:17:01;0.55;91.80
74940;HTU21D;63505;45.226;37.908;2023-02-03T07:19:28;0.62;91.86
74940;HTU21D;63505;45.226;37.908;2023-02-03T07:21:54;0.67;91.88
74940;HTU21D;63505;45.226;37.908;2023-02-03T07:24:20;0.74;91.89
74940;HTU21D;63505;45.226;37.908;2023-02-03T07:26:46;0.79;91.89
74940;HTU21D;63505;45.226;37.908;2023-02-03T07:29:12;0.84;91.95
74940;HTU21D;63505;45.226;37.908;2023-02-03T07:31:38;0.88;91.96
74940;HTU21D;63505;45.226;37.908;2023-02-03T07:34:04;0.91;91.98
74940;HTU21D;63505;45.226;37.908;2023-02-03T07:36:31;0.94;92.00
74940;HTU21D;63505;45.226;37.908;2023-02-03T07:38:57;0.96;92.09
74940;HTU21D;63505;45.226;37.908;2023-02-03T07:41:23;0.98;92.11
74940;HTU21D;63505;45.226;37.908;2023-02-03T07:43:49;1.02;92.20
74940;HTU21D;63505;45.226;37.908;2023-02-03T07:46:15;1.07;92.27
74940;HTU21D;63505;45.226;37.908;2023-02-03T07:48:41;1.17;92.32
74940;HTU21D;63505;45.226;37.908;2023-02-03T07:51:07;1.24;92.34
74940;HTU21D;63505;45.226;37.908;2023-02-03T07:53:33;1.29;92.35
74940;HTU21D;63505;45.226;37.908;2023-02-03T07:56:03;1.38;92.35
74940;HTU21D;63505;45.226;37.908;2023-02-03T07:58:30;1.46;92.37
74940;HTU21D;63505;45.226;37.908;2023-02-03T08:00:57;1.53;92.39
74940;HTU21D;63505;45.226;37.908;2023-02-03T08:03:23;1.61;92.38
74940;HTU21D;63505;45.226;37.908;2023-02-03T08:05:49;1.66;92.43
74940;HTU21D;63505;45.226;37.908;2023-02-03T08:08:15;1.73;92.46
74940;HTU21D;63505;45.226;37.908;2023-02-03T08:10:41;1.79;92.49
74940;HTU21D;63505;45.226;37.908;2023-02-03T08:13:07;1.83;92.53
74940;HTU21D;63505;45.226;37.908;2023-02-03T08:15:33;1.90;92.55
74940;HTU21D;63505;45.226;37.908;2023-02-03T08:17:59;1.97;92.53
74940;HTU21D;63505;45.226;37.908;2023-02-03T08:20:24;1.99;92.52
74940;HTU21D;63505;45.226;37.908;2023-02-03T08:22:51;2.02;92.54
74940;HTU21D;63505;45.226;37.908;2023-02-03T08:25:17;2.06;92.55
74940;HTU21D;63505;45.226;37.908;2023-02-03T08:27:43;2.10;92.63
74940;HTU21D;63505;45.226;37.908;2023-02-03T08:30:11;2.20;92.59
74940;HTU21D;63505;45.226;37.908;2023-02-03T08:32:38;2.22;92.55
74940;HTU21D;63505;45.226;37.908;2023-02-03T08:35:04;2.23;92.53
74940;HTU21D;63505;45.226;37.908;2023-02-03T08:37:30;2.27;92.56
74940;HTU21D;63505;45.226;37.908;2023-02-03T08:39:58;2.31;92.56
74940;HTU21D;63505;45.226;37.908;2023-02-03T08:42:24;2.39;92.58
74940;HTU21D;63505;45.226;37.908;2023-02-03T08:44:50;2.45;92.53
74940;HTU21D;63505;45.226;37.908;2023-02-03T08:47:16;2.49;92.50
74940;HTU21D;63505;45.226;37.908;2023-02-03T08:49:42;2.54;92.45
74940;HTU21D;63505;45.226;37.908;2023-02-03T08:52:10;2.57;92.46
74940;HTU21D;63505;45.226;37.908;2023-02-03T08:54:37;2.59;92.43
74940;HTU21D;63505;45.226;37.908;2023-02-03T08:57:03;2.61;92.38
74940;HTU21D;63505;45.226;37.908;2023-02-03T08:59:29;2.65;92.36
74940;HTU21D;63505;45.226;37.908;2023-02-03T09:01:55;2.64;92.31
74940;HTU21D;63505;45.226;37.908;2023-02-03T09:04:24;2.61;92.28
74940;HTU21D;63505;45.226;37.908;2023-02-03T09:06:52;2.59;92.28
74940;HTU21D;63505;45.226;37.908;2023-02-03T09:09:21;2.58;92.26
74940;HTU21D;63505;45.226;37.908;2023-02-03T09:11:47;2.54;92.27
74940;HTU21D;63505;45.226;37.908;2023-02-03T09:14:13;2.53;92.26
74940;HTU21D;63505;45.226;37.908;2023-02-03T09:16:39;2.53;92.28
74940;HTU21D;63505;45.226;37.908;2023-02-03T09:19:05;2.53;92.25
74940;HTU21D;63505;45.226;37.908;2023-02-03T09:21:31;2.53;92.21
74940;HTU21D;63505;45.226;37.908;2023-02-03T09:24:00;2.53;92.20
74940;HTU21D;63505;45.226;37.908;2023-02-03T09:26:26;2.51;92.21
74940;HTU21D;63505;45.226;37.908;2023-02-03T09:28:52;2.53;92.18
74940;HTU21D;63505;45.226;37.908;2023-02-03T09:31:19;2.53;92.14
74940;HTU21D;63505;45.226;37.908;2023-02-03T09:33:45;2.54;92.14
74940;HTU21D;63505;45.226;37.908;2023-02-03T09:36:11;2.54;92.09
74940;HTU21D;63505;45.226;37.908;2023-02-03T09:38:37;2.54;92.07
74940;HTU21D;63505;45.226;37.908;2023-02-03T09:44:01;2.55;92.00
74940;HTU21D;63505;45.226;37.908;2023-02-03T09:46:33;2.56;91.98
74940;HTU21D;63505;45.226;37.908;2023-02-03T09:49:08;2.56;91.95
74940;HTU21D;63505;45.226;37.908;2023-02-03T09:54:14;2.55;91.97
74940;HTU21D;63505;45.226;37.908;2023-02-03T09:56:42;2.59;91.96
74940;HTU21D;63505;45.226;37.908;2023-02-03T09:59:14;2.65;91.95
74940;HTU21D;63505;45.226;37.908;2023-02-03T10:02:02;2.71;91.95
74940;HTU21D;63505;45.226;37.908;2023-02-03T10:04:42;2.78;91.87
74940;HTU21D;63505;45.226;37.908;2023-02-03T10:18:25;2.74;91.91
74940;HTU21D;63505;45.226;37.908;2023-02-03T10:20:57;2.76;91.98
74940;HTU21D;63505;45.226;37.908;2023-02-03T10:23:32;2.78;92.01
74940;HTU21D;63505;45.226;37.908;2023-02-03T10:26:15;2.78;92.08
74940;HTU21D;63505;45.226;37.908;2023-02-03T10:28:50;2.78;92.11
74940;HTU21D;63505;45.226;37.908;2023-02-03T10:31:20;2.76;92.21
74940;HTU21D;63505;45.226;37.908;2023-02-03T10:33:47;2.76;92.30
74940;HTU21D;63505;45.226;37.908;2023-02-03T10:36:20;2.79;92.38
74940;HTU21D;63505;45.226;37.908;2023-02-03T10:41:19;2.81;92.50
74940;HTU21D;63505;45.226;37.908;2023-02-03T10:43:46;2.84;92.56
74940;HTU21D;63505;45.226;37.908;2023-02-03T10:46:37;2.89;92.62
74940;HTU21D;63505;45.226;37.908;2023-02-03T10:49:04;2.94;92.67
74940;HTU21D;63505;45.226;37.908;2023-02-03T10:51:59;2.99;92.68
74940;HTU21D;63505;45.226;37.908;2023-02-03T10:54:35;3.02;92.69
74940;HTU21D;63505;45.226;37.908;2023-02-03T10:57:09;3.03;92.69
74940;HTU21D;63505;45.226;37.908;2023-02-03T10:59:40;3.05;92.72
74940;HTU21D;63505;45.226;37.908;2023-02-03T11:07:43;3.03;92.72
74940;HTU21D;63505;45.226;37.908;2023-02-03T11:13:22;3.09;92.71
74940;HTU21D;63505;45.226;37.908;2023-02-03T11:16:02;3.11;92.66
74940;HTU21D;63505;45.226;37.908;2023-02-03T11:21:44;3.12;92.66
74940;HTU21D;63505;45.226;37.908;2023-02-03T11:29:22;3.13;92.51
74940;HTU21D;63505;45.226;37.908;2023-02-03T11:31:50;3.10;92.43
74940;HTU21D;63505;45.226;37.908;2023-02-03T11:36:54;3.08;92.34
74940;HTU21D;63505;45.226;37.908;2023-02-03T11:39:28;3.09;92.34
74940;HTU21D;63505;45.226;37.908;2023-02-03T11:41:55;3.10;92.33
74940;HTU21D;63505;45.226;37.908;2023-02-03T11:44:27;3.15;92.34
74940;HTU21D;63505;45.226;37.908;2023-02-03T11:47:02;3.21;92.31
74940;HTU21D;63505;45.226;37.908;2023-02-03T12:14:31;3.46;92.16
74940;HTU21D;63505;45.226;37.908;2023-02-03T12:22:39;3.54;92.18
74940;HTU21D;63505;45.226;37.908;2023-02-03T12:25:28;3.57;92.18
74940;HTU21D;63505;45.226;37.908;2023-02-03T12:28:28;3.57;92.17
74940;HTU21D;63505;45.226;37.908;2023-02-03T12:31:11;3.58;92.18
74940;HTU21D;63505;45.226;37.908;2023-02-03T12:33:43;3.59;92.20
74940;HTU21D;63505;45.226;37.908;2023-02-03T12:36:11;3.60;92.21
74940;HTU21D;63505;45.226;37.908;2023-02-03T12:41:14;3.62;92.27
74940;HTU21D;63505;45.226;37.908;2023-02-03T12:43:43;3.63;92.27
74940;HTU21D;63505;45.226;37.908;2023-02-03T12:46:18;3.65;92.33
74940;HTU21D;63505;45.226;37.908;2023-02-03T12:49:01;3.68;92.26
74940;HTU21D;63505;45.226;37.908;2023-02-03T12:56:53;3.85;92.32
74940;HTU21D;63505;45.226;37.908;2023-02-03T12:59:24;3.98;92.35
74940;HTU21D;63505;45.226;37.908;2023-02-03T13:01:57;4.17;92.31
74940;HTU21D;63505;45.226;37.908;2023-02-03T13:06:54;4.42;92.06
74940;HTU21D;63505;45.226;37.908;2023-02-03T13:12:06;4.46;91.89
74940;HTU21D;63505;45.226;37.908;2023-02-03T13:14:39;4.43;91.84
74940;HTU21D;63505;45.226;37.908;2023-02-03T13:19:45;4.31;91.84
74940;HTU21D;63505;45.226;37.908;2023-02-03T13:22:14;4.24;91.87
74940;HTU21D;63505;45.226;37.908;2023-02-03T13:24:45;4.22;91.85
74940;HTU21D;63505;45.226;37.908;2023-02-03T13:30:12;4.17;91.88
74940;HTU21D;63505;45.226;37.908;2023-02-03T13:33:12;4.14;91.85
74940;HTU21D;63505;45.226;37.908;2023-02-03T13:36:09;4.13;91.86
74940;HTU21D;63505;45.226;37.908;2023-02-03T13:39:03;4.09;91.82
74940;HTU21D;63505;45.226;37.908;2023-02-03T13:42:06;4.10;91.79
74940;HTU21D;63505;45.226;37.908;2023-02-03T13:44:35;4.10;91.76
74940;HTU21D;63505;45.226;37.908;2023-02-03T13:47:02;4.10;91.74
74940;HTU21D;63505;45.226;37.908;2023-02-03T13:49:31;4.12;91.73
74940;HTU21D;63505;45.226;37.908;2023-02-03T13:51:58;4.15;91.70
74940;HTU21D;63505;45.226;37.908;2023-02-03T13:54:33;4.19;91.72
74940;HTU21D;63505;45.226;37.908;2023-02-03T13:57:03;4.19;91.54
74940;HTU21D;63505;45.226;37.908;2023-02-03T14:07:37;4.19;91.62
74940;HTU21D;63505;45.226;37.908;2023-02-03T14:20:47;4.33;91.31
74940;HTU21D;63505;45.226;37.908;2023-02-03T14:23:22;4.30;91.20
74940;HTU21D;63505;45.226;37.908;2023-02-03T14:25:54;4.29;91.11
74940;HTU21D;63505;45.226;37.908;2023-02-03T14:28:30;4.26;91.05
74940;HTU21D;63505;45.226;37.908;2023-02-03T14:44:50;4.14;90.81
74940;HTU21D;63505;45.226;37.908;2023-02-03T14:52:50;4.10;90.76
74940;HTU21D;63505;45.226;37.908;2023-02-03T14:58:31;4.08;90.63
74940;HTU21D;63505;45.226;37.908;2023-02-03T15:00:58;4.06;90.61
74940;HTU21D;63505;45.226;37.908;2023-02-03T15:03:26;4.07;90.54
74940;HTU21D;63505;45.226;37.908;2023-02-03T15:06:01;4.05;90.48
74940;HTU21D;63505;45.226;37.908;2023-02-03T15:11:25;3.99;90.34
74940;HTU21D;63505;45.226;37.908;2023-02-03T15:13:53;3.99;90.26
74940;HTU21D;63505;45.226;37.908;2023-02-03T15:16:21;3.94;90.15
74940;HTU21D;63505;45.226;37.908;2023-02-03T15:18:59;3.92;90.08
74940;HTU21D;63505;45.226;37.908;2023-02-03T15:21:25;3.91;90.00
74940;HTU21D;63505;45.226;37.908;2023-02-03T15:23:52;3.93;89.85
74940;HTU21D;63505;45.226;37.908;2023-02-03T15:26:23;3.95;89.68
74940;HTU21D;63505;45.226;37.908;2023-02-03T15:29:00;3.95;89.52
74940;HTU21D;63505;45.226;37.908;2023-02-03T15:31:40;3.99;89.39
74940;HTU21D;63505;45.226;37.908;2023-02-03T15:36:51;4.09;89.15
74940;HTU21D;63505;45.226;37.908;2023-02-03T15:42:06;4.15;88.93
74940;HTU21D;63505;45.226;37.908;2023-02-03T15:44:52;4.17;88.81
74940;HTU21D;63505;45.226;37.908;2023-02-03T15:47:33;4.21;88.67
74940;HTU21D;63505;45.226;37.908;2023-02-03T15:52:53;4.23;88.42
74940;HTU21D;63505;45.226;37.908;2023-02-03T15:55:48;4.21;88.40
74940;HTU21D;63505;45.226;37.908;2023-02-03T15:58:18;4.20;88.42
74940;HTU21D;63505;45.226;37.908;2023-02-03T16:00:48;4.19;88.44
74940;HTU21D;63505;45.226;37.908;2023-02-03T16:03:19;4.17;88.47
74940;HTU21D;63505;45.226;37.908;2023-02-03T16:05:46;4.16;88.53
74940;HTU21D;63505;45.226;37.908;2023-02-03T16:08:38;4.15;88.55
74940;HTU21D;63505;45.226;37.908;2023-02-03T16:11:33;4.12;88.59
74940;HTU21D;63505;45.226;37.908;2023-02-03T16:14:38;4.09;88.62
74940;HTU21D;63505;45.226;37.908;2023-02-03T16:17:04;4.07;88.69
74940;HTU21D;63505;45.226;37.908;2023-02-03T16:19:31;4.08;88.73
74940;HTU21D;63505;45.226;37.908;2023-02-03T16:22:02;4.10;88.74
74940;HTU21D;63505;45.226;37.908;2023-02-03T16:29:44;4.14;88.73
74940;HTU21D;63505;45.226;37.908;2023-02-03T16:32:29;4.15;88.68
74940;HTU21D;63505;45.226;37.908;2023-02-03T16:35:14;4.16;88.68
74940;HTU21D;63505;45.226;37.908;2023-02-03T16:38:06;4.15;88.66
74940;HTU21D;63505;45.226;37.908;2023-02-03T16:40:51;4.15;88.67
74940;HTU21D;63505;45.226;37.908;2023-02-03T16:43:36;4.13;88.66
74940;HTU21D;63505;45.226;37.908;2023-02-03T16:46:20;4.12;88.67
74940;HTU21D;63505;45.226;37.908;2023-02-03T16:49:05;4.09;88.71
74940;HTU21D;63505;45.226;37.908;2023-02-03T16:51:49;4.07;88.74
74940;HTU21D;63505;45.226;37.908;2023-02-03T16:54:15;4.05;88.80
74940;HTU21D;63505;45.226;37.908;2023-02-03T16:56:43;4.05;88.83
74940;HTU21D;63505;45.226;37.908;2023-02-03T16:59:09;4.03;88.83
74940;HTU21D;63505;45.226;37.908;2023-02-03T17:01:35;4.01;88.87
74940;HTU21D;63505;45.226;37.908;2023-02-03T17:04:01;3.98;88.90
74940;HTU21D;63505;45.226;37.908;2023-02-03T17:06:28;3.99;88.99
74940;HTU21D;63505;45.226;37.908;2023-02-03T17:08:54;4.00;88.99
74940;HTU21D;63505;45.226;37.908;2023-02-03T17:11:21;4.02;88.97
74940;HTU21D;63505;45.226;37.908;2023-02-03T17:13:49;4.01;88.94
74940;HTU21D;63505;45.226;37.908;2023-02-03T17:16:17;3.94;88.89
74940;HTU21D;63505;45.226;37.908;2023-02-03T17:18:44;3.87;88.89
74940;HTU21D;63505;45.226;37.908;2023-02-03T17:21:24;3.76;88.95
74940;HTU21D;63505;45.226;37.908;2023-02-03T17:23:51;3.69;88.97
74940;HTU21D;63505;45.226;37.908;2023-02-03T17:26:17;3.60;89.02
74940;HTU21D;63505;45.226;37.908;2023-02-03T17:28:43;3.48;89.11
74940;HTU21D;63505;45.226;37.908;2023-02-03T17:31:19;3.39;89.18
74940;HTU21D;63505;45.226;37.908;2023-02-03T17:33:49;3.30;89.23
74940;HTU21D;63505;45.226;37.908;2023-02-03T17:36:16;3.20;89.31
74940;HTU21D;63505;45.226;37.908;2023-02-03T17:38:52;3.09;89.37
74940;HTU21D;63505;45.226;37.908;2023-02-03T17:41:23;2.98;89.47
74940;HTU21D;63505;45.226;37.908;2023-02-03T17:43:50;2.89;89.60
74940;HTU21D;63505;45.226;37.908;2023-02-03T17:46:25;2.82;89.72
74940;HTU21D;63505;45.226;37.908;2023-02-03T17:48:51;2.76;89.79
74940;HTU21D;63505;45.226;37.908;2023-02-03T17:51:19;2.70;89.87
74940;HTU21D;63505;45.226;37.908;2023-02-03T17:53:47;2.65;89.99
74940;HTU21D;63505;45.226;37.908;2023-02-03T17:56:16;2.62;90.06
74940;HTU21D;63505;45.226;37.908;2023-02-03T17:58:42;2.61;90.17
74940;HTU21D;63505;45.226;37.908;2023-02-03T18:01:16;2.59;90.12
74940;HTU21D;63505;45.226;37.908;2023-02-03T18:03:47;2.58;90.18
74940;HTU21D;63505;45.226;37.908;2023-02-03T18:06:15;2.57;90.15
74940;HTU21D;63505;45.226;37.908;2023-02-03T18:08:42;2.55;90.12
74940;HTU21D;63505;45.226;37.908;2023-02-03T18:11:09;2.52;90.10
74940;HTU21D;63505;45.226;37.908;2023-02-03T18:13:36;2.50;90.12